Time;durP1;ratioP1;P1;durP2;ratioP2;P2;SDS_P1;SDS_P2;PMS_P1;PMS_P2;Temp;Humidity;BMP_temperature;BMP_pressure;BME280_temperature;BME280_humidity;BME280_pressure;Samples;Min_cycle;Max_cycle;Signal;HPM_P1;HPM_P2
2022/07/23 00:01:18;;;;;;;1.40;1.13;;;15.80;43.70;;;;;;5054691;28;20409;-75
2022/07/23 00:03:44;;;;;;;2.23;1.20;;;15.80;57.60;;;;;;5053424;28;20953;-75
2022/07/23 00:06:11;;;;;;;1.53;1.43;;;15.90;61.50;;;;;;5054381;28;20405;-67
2022/07/23 00:08:37;;;;;;;3.57;1.40;;;15.90;56.90;;;;;;5054694;28;20484;-75
2022/07/23 00:11:03;;;;;;;3.13;1.50;;;15.90;54.30;;;;;;5054434;28;20409;-67
2022/07/23 00:13:29;;;;;;;6.23;1.53;;;15.90;56.00;;;;;;5053286;28;20961;-67
2022/07/23 00:15:55;;;;;;;1.77;1.57;;;15.90;57.50;;;;;;5053953;28;20516;-75
2022/07/23 00:18:21;;;;;;;2.10;1.57;;;15.90;58.10;;;;;;5054432;28;20193;-74
2022/07/23 00:20:47;;;;;;;1.50;1.33;;;15.90;66.30;;;;;;5054038;28;20940;-74
2022/07/23 00:23:14;;;;;;;1.50;1.40;;;15.90;66.70;;;;;;5053237;28;20397;-67
2022/07/23 00:25:39;;;;;;;4.70;1.90;;;15.90;60.60;;;;;;5054054;28;20453;-67
2022/07/23 00:28:05;;;;;;;8.47;2.00;;;15.80;57.10;;;;;;5054138;28;20444;-67
2022/07/23 00:30:32;;;;;;;4.77;1.67;;;15.80;70.10;;;;;;5054246;28;20170;-75
2022/07/23 00:33:01;;;;;;;1.60;1.50;;;15.90;74.80;;;;;;5053188;28;20484;-75
2022/07/23 00:35:29;;;;;;;1.30;1.20;;;15.90;70.80;;;;;;5053760;28;20783;-67
2022/07/23 00:37:56;;;;;;;1.57;1.47;;;16.00;70.60;;;;;;5053434;28;20386;-66
2022/07/23 00:40:22;;;;;;;3.00;1.80;;;16.00;67.40;;;;;;5053914;28;20398;-74
2022/07/23 00:42:48;;;;;;;4.90;2.30;;;15.90;64.20;;;;;;5051806;28;20418;-76
2022/07/23 00:45:14;;;;;;;1.73;1.63;;;15.90;66.70;;;;;;5053940;28;20535;-66
2022/07/23 00:47:40;;;;;;;2.77;1.60;;;15.90;69.60;;;;;;5053670;28;20170;-68
2022/07/23 00:50:08;;;;;;;4.10;1.63;;;15.90;64.40;;;;;;5053718;28;20195;-74
2022/07/23 00:52:38;;;;;;;2.43;1.80;;;15.90;67.80;;;;;;5052957;28;20393;-74
2022/07/23 00:55:05;;;;;;;1.93;1.40;;;15.90;71.40;;;;;;5053573;28;20453;-75
2022/07/23 00:57:35;;;;;;;2.17;1.30;;;15.90;65.90;;;;;;5053459;28;20763;-68
2022/07/23 01:00:01;;;;;;;1.40;1.30;;;15.90;68.20;;;;;;5053294;28;20492;-76
2022/07/23 01:02:27;;;;;;;4.67;1.60;;;15.90;69.20;;;;;;5052653;28;20405;-75
2022/07/23 01:04:53;;;;;;;4.60;2.23;;;15.90;73.50;;;;;;5053407;28;20429;-75
2022/07/23 01:07:19;;;;;;;2.80;1.87;;;15.90;70.80;;;;;;5053506;28;20494;-67
2022/07/23 01:09:46;;;;;;;3.37;1.50;;;15.90;64.50;;;;;;5053394;28;20427;-67
2022/07/23 01:12:12;;;;;;;4.50;1.90;;;15.90;72.00;;;;;;5052503;28;20411;-67
2022/07/23 01:14:38;;;;;;;2.40;1.83;;;15.90;66.50;;;;;;5053399;28;20461;-75
2022/07/23 01:17:04;;;;;;;3.00;1.80;;;15.80;68.80;;;;;;5053223;28;20951;-75
2022/07/23 01:19:30;;;;;;;2.03;1.60;;;15.70;68.70;;;;;;5051355;28;20163;-75
2022/07/23 01:21:58;;;;;;;1.63;1.53;;;15.60;70.20;;;;;;5053018;28;20492;-74
2022/07/23 01:24:24;;;;;;;1.67;1.53;;;15.50;74.90;;;;;;5052407;28;20479;-75
2022/07/23 01:26:50;;;;;;;1.80;1.70;;;15.50;79.30;;;;;;5052929;28;20409;-66
2022/07/23 01:29:16;;;;;;;2.70;1.40;;;15.50;79.00;;;;;;5052653;28;20171;-74
2022/07/23 01:31:43;;;;;;;2.20;1.40;;;15.50;82.50;;;;;;5053087;28;20171;-67
2022/07/23 01:34:10;;;;;;;3.33;1.70;;;15.50;81.80;;;;;;5051823;28;20453;-66
2022/07/23 01:36:37;;;;;;;3.10;1.80;;;15.50;90.60;;;;;;5052636;28;20408;-75
2022/07/23 01:39:04;;;;;;;1.43;1.30;;;15.60;87.50;;;;;;5053080;28;20749;-75
2022/07/23 01:41:30;;;;;;;3.20;1.77;;;15.60;81.70;;;;;;5051753;28;20869;-67
2022/07/23 01:43:56;;;;;;;8.13;1.73;;;15.60;82.60;;;;;;5052151;28;20925;-75
2022/07/23 01:46:22;;;;;;;2.53;1.50;;;15.60;85.50;;;;;;5052877;28;20409;-74
2022/07/23 01:48:48;;;;;;;1.73;1.43;;;15.40;81.60;;;;;;5052964;28;20420;-66
2022/07/23 01:51:14;;;;;;;5.93;2.23;;;15.40;86.50;;;;;;5053086;28;20409;-75
2022/07/23 01:53:41;;;;;;;6.23;1.67;;;15.50;89.70;;;;;;5051787;28;20461;-69
2022/07/23 01:56:07;;;;;;;2.70;1.57;;;15.50;89.50;;;;;;5052229;28;20159;-74
2022/07/23 01:58:33;;;;;;;2.00;1.80;;;15.50;91.50;;;;;;5052932;28;20393;-76
2022/07/23 02:01:00;;;;;;;2.37;1.83;;;15.50;89.70;;;;;;5052736;28;20451;-67
2022/07/23 02:03:26;;;;;;;2.73;1.57;;;15.60;84.30;;;;;;5051846;28;20425;-68
2022/07/23 02:05:52;;;;;;;3.60;2.17;;;15.50;85.50;;;;;;5051610;28;20413;-74
2022/07/23 02:08:18;;;;;;;1.70;1.60;;;15.50;89.10;;;;;;5052648;28;20405;-76
2022/07/23 02:10:45;;;;;;;6.03;2.47;;;15.60;93.70;;;;;;5052667;28;20408;-71
2022/07/23 02:13:11;;;;;;;8.93;2.30;;;15.40;93.60;;;;;;5051253;28;20229;-67
2022/07/23 02:15:37;;;;;;;2.60;2.00;;;15.30;88.40;;;;;;5052564;28;20476;-74
2022/07/23 02:18:03;;;;;;;2.00;1.90;;;15.20;93.90;;;;;;5052753;28;20894;-69
2022/07/23 02:20:29;;;;;;;3.47;1.87;;;15.20;95.10;;;;;;5051603;28;20237;-66
2022/07/23 02:22:55;;;;;;;2.03;1.83;;;15.20;93.90;;;;;;5051739;28;20486;-66
2022/07/23 02:25:21;;;;;;;3.90;1.97;;;15.20;93.90;;;;;;5052685;28;20195;-68
2022/07/23 02:27:47;;;;;;;2.90;1.70;;;15.20;93.90;;;;;;5052570;28;20179;-75
2022/07/23 02:30:13;;;;;;;2.40;1.70;;;15.30;94.00;;;;;;5052482;28;20401;-68
2022/07/23 02:32:39;;;;;;;3.73;1.67;;;15.30;95.50;;;;;;5051316;28;20463;-67
2022/07/23 02:35:06;;;;;;;3.10;2.27;;;15.30;94.00;;;;;;5051976;28;20468;-75
2022/07/23 02:37:32;;;;;;;2.33;1.93;;;15.40;94.00;;;;;;5052512;28;20539;-67
2022/07/23 02:39:58;;;;;;;6.33;1.57;;;15.40;94.00;;;;;;5054866;28;20863;-76
2022/07/23 02:42:24;;;;;;;3.40;1.73;;;15.40;94.00;;;;;;5055237;28;20496;-67
2022/07/23 02:44:51;;;;;;;3.70;2.00;;;15.30;94.00;;;;;;5055963;28;20186;-67
2022/07/23 02:47:17;;;;;;;3.43;1.47;;;15.30;94.00;;;;;;5054975;28;20179;-74
2022/07/23 02:49:43;;;;;;;2.90;2.07;;;15.20;94.00;;;;;;5055409;28;20413;-75
2022/07/23 02:52:10;;;;;;;10.40;2.50;;;15.20;93.90;;;;;;5055632;28;20397;-73
2022/07/23 02:54:37;;;;;;;3.77;1.60;;;15.30;94.00;;;;;;5055859;28;20465;-67
2022/07/23 02:57:04;;;;;;;2.40;1.57;;;15.30;94.00;;;;;;5055875;28;20401;-66
2022/07/23 02:59:29;;;;;;;2.70;2.00;;;15.30;94.00;;;;;;5055837;28;21257;-75
2022/07/23 03:01:55;;;;;;;2.63;1.40;;;15.30;94.00;;;;;;5055718;28;20492;-73
2022/07/23 03:04:21;;;;;;;4.57;1.83;;;15.30;94.00;;;;;;5054985;28;20191;-67
2022/07/23 03:06:47;;;;;;;3.70;1.60;;;15.40;94.20;;;;;;5054983;28;20653;-67
2022/07/23 03:09:13;;;;;;;2.40;1.70;;;15.40;94.00;;;;;;5055901;28;20163;-75
2022/07/23 03:11:38;;;;;;;2.33;2.00;;;15.40;94.00;;;;;;5055696;28;20199;-75
2022/07/23 03:14:05;;;;;;;5.73;2.83;;;15.40;94.00;;;;;;5054581;28;20304;-68
2022/07/23 03:16:31;;;;;;;3.10;1.50;;;15.40;94.00;;;;;;5055599;28;20225;-66
2022/07/23 03:18:57;;;;;;;3.30;1.60;;;15.50;94.00;;;;;;5055386;28;20397;-68
2022/07/23 03:21:23;;;;;;;4.73;1.73;;;15.50;94.00;;;;;;5055561;28;20166;-70
2022/07/23 03:23:51;;;;;;;2.30;1.93;;;15.50;94.00;;;;;;5054568;28;20439;-67
2022/07/23 03:26:16;;;;;;;7.53;1.90;;;15.50;94.10;;;;;;5054781;28;20162;-67
2022/07/23 03:28:42;;;;;;;4.63;1.93;;;15.50;94.00;;;;;;5055452;28;20481;-67
2022/07/23 03:31:12;;;;;;;3.83;2.13;;;15.40;94.00;;;;;;5055227;28;20171;-74
2022/07/23 03:33:37;;;;;;;1.50;1.40;;;15.50;94.00;;;;;;5054281;28;20194;-66
2022/07/23 03:36:03;;;;;;;1.60;1.30;;;15.50;94.00;;;;;;5055354;28;20398;-68
2022/07/23 03:38:29;;;;;;;4.40;2.00;;;15.50;94.00;;;;;;5055235;28;20170;-74
2022/07/23 03:40:55;;;;;;;1.77;1.30;;;15.40;94.00;;;;;;5055066;28;20197;-67
2022/07/23 03:43:20;;;;;;;4.73;2.00;;;15.30;94.00;;;;;;5053454;28;20167;-67
2022/07/23 03:45:46;;;;;;;2.40;1.47;;;15.30;94.40;;;;;;5055037;28;20163;-66
2022/07/23 03:48:12;;;;;;;3.33;1.93;;;15.40;94.60;;;;;;5055067;28;20176;-67
2022/07/23 03:50:38;;;;;;;2.03;1.83;;;15.40;98.10;;;;;;5054098;28;20167;-67
2022/07/23 03:53:07;;;;;;;3.40;2.07;;;15.30;94.10;;;;;;5053934;28;20166;-74
2022/07/23 03:55:33;;;;;;;4.40;1.97;;;15.30;98.70;;;;;;5054701;28;20277;-66
2022/07/23 03:57:58;;;;;;;4.07;2.87;;;15.40;99.90;;;;;;5054930;28;20918;-67
2022/07/23 04:00:24;;;;;;;1.73;1.50;;;15.40;96.80;;;;;;5054820;28;20683;-67
2022/07/23 04:02:50;;;;;;;3.53;1.63;;;15.30;94.00;;;;;;5053251;28;20402;-75
2022/07/23 04:05:16;;;;;;;12.10;2.13;;;15.30;96.90;;;;;;5053317;28;20548;-67
2022/07/23 04:07:41;;;;;;;2.30;1.77;;;15.30;99.10;;;;;;5054589;28;20225;-75
2022/07/23 04:10:07;;;;;;;2.47;1.70;;;15.30;99.90;;;;;;5054557;28;20177;-67
2022/07/23 04:12:33;;;;;;;2.63;1.67;;;15.40;99.90;;;;;;5053750;28;20317;-75
2022/07/23 04:14:59;;;;;;;6.00;1.73;;;15.30;99.20;;;;;;5054235;28;20532;-67
2022/07/23 04:17:25;;;;;;;2.00;1.50;;;15.30;99.90;;;;;;5054317;28;20232;-74
2022/07/23 04:19:51;;;;;;;3.50;1.80;;;15.40;96.90;;;;;;5053897;28;20520;-74
2022/07/23 04:22:17;;;;;;;1.70;1.60;;;15.30;99.90;;;;;;5053368;28;20750;-74
2022/07/23 04:24:43;;;;;;;2.10;1.37;;;15.30;99.90;;;;;;5054197;28;20291;-68
2022/07/23 04:27:08;;;;;;;1.80;1.70;;;15.40;97.40;;;;;;5053012;28;20503;-67
2022/07/23 04:29:34;;;;;;;1.83;1.60;;;15.40;99.50;;;;;;5054095;28;20414;-75
2022/07/23 04:32:01;;;;;;;5.07;2.70;;;15.50;98.30;;;;;;5054066;28;20246;-71
2022/07/23 04:34:26;;;;;;;2.60;1.67;;;15.60;99.50;;;;;;5053261;28;20544;-67
2022/07/23 04:36:53;;;;;;;2.90;1.47;;;15.70;94.10;;;;;;5053595;28;20428;-68
2022/07/23 04:39:19;;;;;;;2.50;1.10;;;15.70;94.10;;;;;;5052656;28;20511;-74
2022/07/23 04:41:45;;;;;;;1.53;1.43;;;15.80;94.10;;;;;;5053845;28;20405;-67
2022/07/23 04:44:11;;;;;;;1.47;1.37;;;15.80;94.20;;;;;;5052953;28;20432;-66
2022/07/23 04:46:37;;;;;;;1.57;1.47;;;15.70;94.10;;;;;;5053974;28;20175;-66
2022/07/23 04:49:03;;;;;;;2.03;1.67;;;15.70;94.10;;;;;;5053861;28;20301;-74
2022/07/23 04:51:29;;;;;;;1.47;1.37;;;15.70;94.10;;;;;;5053750;28;20460;-75
2022/07/23 04:53:55;;;;;;;1.63;1.47;;;15.70;94.20;;;;;;5052716;28;20464;-67
2022/07/23 04:56:22;;;;;;;4.03;2.90;;;15.60;94.10;;;;;;5053040;28;20397;-66
2022/07/23 04:58:48;;;;;;;2.10;1.97;;;15.70;94.10;;;;;;5053622;28;20764;-75
2022/07/23 05:01:13;;;;;;;1.50;1.40;;;15.80;94.10;;;;;;5053813;28;20485;-66
2022/07/23 05:03:39;;;;;;;8.40;2.60;;;15.80;94.20;;;;;;5052415;28;20190;-75
2022/07/23 05:06:05;;;;;;;1.50;1.30;;;15.90;94.20;;;;;;5053543;28;20647;-67
2022/07/23 05:08:31;;;;;;;2.90;1.60;;;15.90;94.20;;;;;;5053533;28;20417;-67
2022/07/23 05:10:57;;;;;;;1.33;1.23;;;15.90;92.00;;;;;;5053455;28;20245;-66
2022/07/23 05:13:23;;;;;;;1.70;1.37;;;15.90;94.20;;;;;;5052346;28;20401;-72
2022/07/23 05:15:49;;;;;;;1.70;1.60;;;16.00;94.30;;;;;;5052660;28;20189;-74
2022/07/23 05:18:15;;;;;;;1.87;1.67;;;16.00;94.20;;;;;;5053347;28;20417;-67
2022/07/23 05:20:41;;;;;;;1.80;1.10;;;16.00;86.20;;;;;;5053506;28;20163;-74
2022/07/23 05:23:07;;;;;;;2.10;1.80;;;16.00;85.20;;;;;;5052379;28;20163;-67
2022/07/23 05:25:33;;;;;;;1.73;1.60;;;15.90;92.40;;;;;;5053204;28;20805;-67
2022/07/23 05:27:59;;;;;;;4.53;1.87;;;15.90;87.10;;;;;;5052175;28;20937;-75
2022/07/23 05:30:25;;;;;;;1.40;1.30;;;15.90;89.00;;;;;;5053123;28;20467;-66
2022/07/23 05:32:51;;;;;;;3.47;1.60;;;15.90;77.40;;;;;;5052181;28;20496;-74
2022/07/23 05:35:17;;;;;;;2.87;1.60;;;15.90;70.90;;;;;;5052430;28;20244;-75
2022/07/23 05:37:43;;;;;;;3.53;2.07;;;15.90;68.60;;;;;;5052988;28;20729;-74
2022/07/23 05:40:10;;;;;;;2.80;1.60;;;15.80;69.60;;;;;;5052878;28;20488;-74
2022/07/23 05:42:37;;;;;;;2.43;1.70;;;15.70;76.60;;;;;;5052164;28;20178;-67
2022/07/23 05:45:04;;;;;;;2.87;1.60;;;15.70;87.40;;;;;;5052954;28;21101;-75
2022/07/23 05:47:59;;;;;;;1.90;1.80;;;15.80;82.70;;;;;;5052959;28;20455;-75
2022/07/23 05:50:25;;;;;;;1.90;1.70;;;15.80;85.90;;;;;;5052622;28;20429;-75
2022/07/23 05:52:51;;;;;;;3.73;1.70;;;15.90;89.30;;;;;;5051261;28;20416;-74
2022/07/23 05:55:17;;;;;;;2.63;1.80;;;15.90;88.20;;;;;;5053012;28;20457;-75
2022/07/23 05:57:43;;;;;;;5.97;1.60;;;15.90;90.90;;;;;;5052836;28;20170;-67
2022/07/23 06:00:10;;;;;;;2.03;1.47;;;15.90;90.00;;;;;;5052740;28;20627;-68
2022/07/23 06:02:38;;;;;;;1.93;1.80;;;16.00;90.00;;;;;;5052521;28;20448;-75
2022/07/23 06:05:09;;;;;;;4.43;1.90;;;16.10;93.40;;;;;;5052423;28;20452;-76
2022/07/23 06:07:36;;;;;;;8.93;2.20;;;16.20;91.10;;;;;;5051581;28;20409;-73
2022/07/23 06:10:02;;;;;;;1.87;1.77;;;16.30;94.20;;;;;;5052321;28;20878;-76
2022/07/23 06:12:28;;;;;;;2.23;1.70;;;16.20;84.10;;;;;;5052070;28;20441;-74
2022/07/23 06:14:54;;;;;;;1.63;1.53;;;16.20;90.50;;;;;;5053689;28;20457;-74
2022/07/23 06:17:28;;;;;;;2.27;1.80;;;16.20;89.30;;;;;;5055758;28;20487;-77
2022/07/23 06:23:37;;;;;;;1.53;1.43;;;16.20;90.00;;;;;;5054300;28;20455;-76
2022/07/23 06:26:03;;;;;;;2.23;1.70;;;16.20;91.00;;;;;;5054539;28;20412;-68
2022/07/23 06:28:29;;;;;;;1.70;1.60;;;16.30;83.40;;;;;;5090566;28;20788;-74
2022/07/23 06:30:55;;;;;;;2.20;2.00;;;16.30;85.60;;;;;;5078476;28;20391;-66
2022/07/23 06:33:21;;;;;;;4.80;2.80;;;16.20;85.40;;;;;;5095920;28;20172;-72
2022/07/23 06:35:47;;;;;;;12.90;2.33;;;16.20;93.70;;;;;;5096502;28;20162;-75
2022/07/23 06:38:15;;;;;;;3.50;2.10;;;16.20;90.20;;;;;;5078295;28;20423;-66
2022/07/23 06:40:41;;;;;;;4.70;1.73;;;16.20;87.70;;;;;;5096395;28;20248;-70
2022/07/23 06:43:06;;;;;;;1.67;1.57;;;16.20;78.90;;;;;;5095785;28;20821;-66
2022/07/23 06:45:32;;;;;;;7.57;1.70;;;16.10;75.30;;;;;;5095845;28;20760;-73
2022/07/23 06:48:15;;;;;;;3.37;1.70;;;16.10;88.00;;;;;;5096465;28;20177;-67
2022/07/23 06:50:40;;;;;;;4.27;1.67;;;16.10;78.40;;;;;;5096198;28;20173;-75
2022/07/23 06:53:06;;;;;;;1.60;1.50;;;16.00;77.40;;;;;;5095594;28;20526;-75
2022/07/23 06:55:38;;;;;;;1.67;1.53;;;16.10;75.20;;;;;;5077829;28;20455;-67
2022/07/23 06:58:05;;;;;;;2.40;1.30;;;16.10;83.00;;;;;;5096181;28;20165;-75
2022/07/23 07:00:40;;;;;;;4.43;1.50;;;16.20;69.80;;;;;;5096241;28;20784;-69
2022/07/23 07:03:05;;;;;;;5.43;2.80;;;16.20;72.30;;;;;;5094810;28;20444;-67
2022/07/23 07:05:32;;;;;;;3.00;1.97;;;16.30;80.20;;;;;;5095884;28;20424;-75
2022/07/23 07:08:01;;;;;;;4.40;1.93;;;16.40;80.30;;;;;;5077936;28;20184;-67
2022/07/23 07:10:29;;;;;;;1.77;1.50;;;16.40;79.90;;;;;;5077738;28;20424;-67
2022/07/23 07:12:55;;;;;;;3.43;1.60;;;16.40;69.70;;;;;;5095111;28;20916;-75
2022/07/23 07:15:21;;;;;;;2.40;1.60;;;16.20;77.50;;;;;;5095761;28;20513;-75
2022/07/23 07:17:47;;;;;;;5.67;1.63;;;16.20;75.00;;;;;;5095822;28;20530;-66
2022/07/23 07:20:28;;;;;;;3.00;1.63;;;16.20;81.00;;;;;;5095333;28;20923;-75
2022/07/23 07:22:54;;;;;;;2.13;1.60;;;16.20;78.40;;;;;;5094879;28;20399;-75
2022/07/23 07:25:20;;;;;;;1.80;1.50;;;16.20;83.60;;;;;;5076260;28;20444;-75
2022/07/23 07:27:46;;;;;;;6.57;1.77;;;16.00;82.80;;;;;;5095479;28;20181;-66
2022/07/23 07:30:12;;;;;;;2.20;2.03;;;15.90;75.60;;;;;;5095430;28;20410;-67
2022/07/23 07:32:38;;;;;;;2.03;1.83;;;15.90;83.70;;;;;;5095010;28;20169;-67
2022/07/23 07:35:05;;;;;;;5.10;1.60;;;15.90;82.00;;;;;;5095205;28;20528;-75
2022/07/23 07:37:31;;;;;;;2.77;1.80;;;15.90;80.90;;;;;;5095054;28;20503;-68
2022/07/23 07:39:57;;;;;;;3.30;1.73;;;16.00;73.40;;;;;;5077115;28;20495;-75
2022/07/23 07:42:23;;;;;;;4.40;1.80;;;16.00;81.40;;;;;;5094523;28;20170;-66
2022/07/23 07:44:49;;;;;;;2.27;1.90;;;16.10;71.00;;;;;;5094944;28;20228;-75
2022/07/23 07:47:15;;;;;;;2.20;2.00;;;16.10;75.30;;;;;;5095268;28;20173;-75
2022/07/23 07:49:44;;;;;;;2.37;1.73;;;16.10;76.00;;;;;;5095049;28;20478;-75
2022/07/23 07:52:10;;;;;;;1.63;1.50;;;16.00;74.60;;;;;;5094373;28;20435;-73
2022/07/23 07:54:37;;;;;;;4.30;1.77;;;16.10;74.10;;;;;;5095047;28;20490;-77
2022/07/23 07:57:03;;;;;;;2.07;1.97;;;16.00;78.40;;;;;;5094182;28;20811;-75
2022/07/23 07:59:29;;;;;;;2.53;1.80;;;16.20;79.40;;;;;;5094868;28;20400;-75
2022/07/23 08:01:55;;;;;;;2.13;1.93;;;16.20;83.60;;;;;;5094999;28;20412;-68
2022/07/23 08:04:20;;;;;;;3.00;1.40;;;16.30;83.90;;;;;;5094275;28;20665;-75
2022/07/23 08:06:46;;;;;;;2.97;1.57;;;16.30;72.60;;;;;;5094870;28;20491;-74
2022/07/23 08:09:12;;;;;;;3.40;1.83;;;16.40;67.90;;;;;;5094815;28;20184;-70
2022/07/23 08:11:38;;;;;;;4.67;1.90;;;16.50;58.20;;;;;;5094729;28;20511;-67
2022/07/23 08:14:04;;;;;;;2.80;2.60;;;16.50;57.10;;;;;;5093357;28;20459;-67
2022/07/23 08:16:30;;;;;;;1.50;1.40;;;16.70;58.40;;;;;;5094437;28;20489;-76
2022/07/23 08:18:56;;;;;;;1.97;1.43;;;16.90;40.60;;;;;;5094589;28;20170;-75
2022/07/23 08:21:22;;;;;;;1.33;1.20;;;17.00;39.00;;;;;;5076572;28;20724;-69
2022/07/23 08:27:47;;;;;;;3.83;1.50;;;17.40;18.80;;;;;;5094484;28;20391;-74
2022/07/23 08:30:13;;;;;;;6.70;1.97;;;17.10;5.20;;;;;;5094213;28;20899;-75
2022/07/23 08:33:00;;;;;;;3.57;1.67;;;17.20;28.90;;;;;;5093320;28;20410;-67
2022/07/23 08:35:35;;;;;;;2.10;1.77;;;17.30;35.60;;;;;;5093779;28;20463;-72
2022/07/23 08:38:05;;;;;;;1.70;1.60;;;17.50;28.20;;;;;;5093976;28;20836;-67
2022/07/23 08:48:11;;;;;;;1.23;1.13;;;17.90;1.00;;;;;;5093961;28;20376;-67
2022/07/23 08:50:37;;;;;;;2.37;1.80;;;17.90;1.00;;;;;;5094140;28;20396;-76
2022/07/23 08:53:09;;;;;;;4.27;1.90;;;17.90;1.00;;;;;;5092567;28;20399;-67
2022/07/23 08:55:35;;;;;;;2.30;1.40;;;17.60;1.00;;;;;;5093550;28;20509;-66
2022/07/23 08:58:01;;;;;;;6.10;1.50;;;17.50;1.00;;;;;;5093965;28;20392;-72
2022/07/23 09:00:28;;;;;;;2.60;1.47;;;17.60;1.00;;;;;;5075643;28;20765;-67
2022/07/23 09:02:54;;;;;;;7.90;1.60;;;17.60;1.00;;;;;;5093053;28;20415;-67
2022/07/23 09:05:20;;;;;;;2.27;1.60;;;17.60;1.00;;;;;;5093706;28;20439;-75
2022/07/23 09:08:08;;;;;;;6.20;1.50;;;17.80;1.00;;;;;;5093620;28;20462;-67
2022/07/23 09:10:54;;;;;;;2.23;1.30;;;18.20;1.00;;;;;;5093892;28;20457;-66
2022/07/23 09:13:34;;;;;;;1.80;1.70;;;18.20;1.00;;;;;;5073899;28;20422;-75
2022/07/23 09:16:12;;;;;;;3.03;2.33;;;18.30;1.00;;;;;;5093323;28;20431;-77
2022/07/23 09:18:43;;;;;;;3.37;1.53;;;18.40;1.00;;;;;;5093502;28;20439;-76
2022/07/23 09:21:18;;;;;;;1.67;1.53;;;18.50;1.00;;;;;;5093484;28;20450;-66
2022/07/23 09:23:46;;;;;;;2.73;1.30;;;18.30;1.00;;;;;;5092597;28;20926;-75
2022/07/23 09:26:20;;;;;;;1.50;1.40;;;18.00;1.00;;;;;;5093245;28;20410;-67
2022/07/23 09:29:07;;;;;;;2.87;1.30;;;17.70;1.00;;;;;;5075230;28;20426;-72
2022/07/23 09:31:51;;;;;;;3.00;1.27;;;17.70;1.00;;;;;;5074626;28;21003;-74
2022/07/23 09:34:26;;;;;;;1.67;1.57;;;17.80;1.00;;;;;;5092394;28;20455;-66
2022/07/23 09:36:55;;;;;;;1.90;1.60;;;17.80;1.00;;;;;;5093236;28;20418;-66
2022/07/23 09:39:32;;;;;;;5.13;1.57;;;17.80;1.00;;;;;;5093291;28;20404;-74
2022/07/23 09:42:12;;;;;;;2.30;1.57;;;17.80;1.00;;;;;;5093088;28;20460;-74
2022/07/23 09:44:43;;;;;;;2.83;2.57;;;17.80;1.00;;;;;;5093222;28;20436;-67
2022/07/23 09:47:09;;;;;;;5.70;1.43;;;17.90;1.00;;;;;;5093223;28;20423;-67
2022/07/23 09:49:35;;;;;;;2.63;2.43;;;17.90;1.00;;;;;;5073597;28;20411;-73
2022/07/23 09:52:11;;;;;;;2.63;1.37;;;17.80;5.90;;;;;;5092789;28;20485;-73
2022/07/23 09:54:39;;;;;;;6.33;1.23;;;17.80;6.50;;;;;;5074955;28;20557;-66
2022/07/23 09:57:16;;;;;;;2.00;1.20;;;17.80;3.00;;;;;;5092995;28;20402;-75
2022/07/23 09:59:43;;;;;;;1.83;1.20;;;18.00;12.40;;;;;;5074846;28;20517;-75
2022/07/23 10:02:15;;;;;;;1.50;0.93;;;18.10;5.70;;;;;;5092296;28;20403;-72
2022/07/23 10:05:01;;;;;;;3.83;1.40;;;18.00;1.00;;;;;;5093073;28;20428;-74
2022/07/23 10:07:31;;;;;;;3.40;1.30;;;17.90;1.00;;;;;;5092125;28;20477;-70
2022/07/23 10:09:58;;;;;;;1.20;1.07;;;18.10;1.00;;;;;;5092387;28;20399;-74
2022/07/23 10:15:10;;;;;;;3.00;1.93;;;18.30;1.00;;;;;;5093001;28;20823;-66
2022/07/23 10:17:36;;;;;;;1.97;1.10;;;18.70;1.00;;;;;;5092788;28;20427;-66
2022/07/23 10:20:04;;;;;;;1.77;0.93;;;19.30;1.00;;;;;;5092836;28;20407;-75
2022/07/23 10:22:58;;;;;;;1.93;1.20;;;19.80;1.00;;;;;;5092026;28;20498;-75
2022/07/23 10:25:41;;;;;;;2.07;1.20;;;19.60;1.00;;;;;;5092778;28;20431;-75
2022/07/23 10:28:10;;;;;;;1.93;1.00;;;19.80;1.00;;;;;;5092111;28;20442;-74
2022/07/23 10:38:10;;;;;;;2.17;1.57;;;19.10;1.00;;;;;;5031821;28;20449;-75
2022/07/23 10:40:36;;;;;;;1.40;1.30;;;18.90;1.00;;;;;;5030373;28;20950;-66
2022/07/23 10:43:12;;;;;;;2.80;1.10;;;18.60;1.00;;;;;;5029629;28;20417;-75
2022/07/23 10:45:58;;;;;;;2.13;1.37;;;18.60;1.00;;;;;;5068808;28;20201;-75
2022/07/23 10:48:26;;;;;;;1.30;1.20;;;18.60;1.00;;;;;;5056572;28;20833;-74
2022/07/23 10:51:16;;;;;;;1.17;1.03;;;18.60;1.00;;;;;;5092497;28;20392;-67
2022/07/23 10:53:56;;;;;;;1.73;1.47;;;18.50;1.00;;;;;;5073569;28;20959;-76
2022/07/23 10:57:04;;;;;;;1.60;1.43;;;18.40;1.00;;;;;;5092363;28;20395;-67
2022/07/23 10:59:30;;;;;;;1.63;1.50;;;18.30;1.00;;;;;;5092566;28;20895;-67
2022/07/23 11:02:23;;;;;;;1.70;1.20;;;18.30;1.00;;;;;;5078067;28;20422;-75
2022/07/23 11:05:06;;;;;;;4.83;1.40;;;18.10;1.00;;;;;;5095305;28;20477;-75
2022/07/23 11:07:33;;;;;;;2.50;1.10;;;17.80;1.00;;;;;;5095991;28;20411;-67
2022/07/23 11:09:59;;;;;;;1.57;1.20;;;17.70;1.00;;;;;;5096172;28;20418;-67
2022/07/23 11:12:47;;;;;;;1.50;1.37;;;17.70;1.00;;;;;;5095233;28;20404;-75
2022/07/23 11:18:17;;;;;;;1.70;1.33;;;18.20;1.00;;;;;;5095590;28;20901;-68
2022/07/23 11:20:53;;;;;;;2.17;1.30;;;18.50;1.00;;;;;;5095633;28;20412;-76
2022/07/23 11:24:06;;;;;;;5.23;1.40;;;18.70;1.00;;;;;;5094432;28;20399;-68
2022/07/23 11:26:05;;;;;;;2.47;1.63;;;18.70;1.00;;;;;;5081196;28;20419;-67
2022/07/23 11:28:34;;;;;;;1.60;1.20;;;18.50;1.00;;;;;;5077835;28;20439;-67
2022/07/23 11:31:17;;;;;;;2.63;1.20;;;18.40;1.00;;;;;;5095389;28;20407;-67
2022/07/23 11:43:16;;;;;;;1.60;1.03;;;19.30;1.00;;;;;;5093949;28;20496;-66
2022/07/23 11:45:45;;;;;;;2.00;0.80;;;19.30;1.00;;;;;;5095203;28;20427;-75
2022/07/23 11:48:22;;;;;;;1.67;1.13;;;19.30;1.00;;;;;;5095240;28;20415;-74
2022/07/23 11:50:52;;;;;;;2.20;1.53;;;19.30;1.00;;;;;;5095205;28;20406;-75
2022/07/23 11:53:27;;;;;;;3.03;1.10;;;19.20;1.00;;;;;;5075662;28;20457;-72
2022/07/23 11:55:54;;;;;;;1.67;1.57;;;19.20;1.00;;;;;;5095109;28;20549;-75
2022/07/23 11:58:29;;;;;;;2.40;1.37;;;19.30;1.00;;;;;;5095039;28;20396;-75
2022/07/23 12:00:58;;;;;;;2.23;1.30;;;19.20;1.00;;;;;;5094170;28;20405;-70
2022/07/23 12:03:24;;;;;;;3.63;1.53;;;19.00;1.00;;;;;;5093947;28;20478;-69
2022/07/23 12:05:56;;;;;;;2.73;1.40;;;18.80;1.00;;;;;;5094871;28;20550;-68
2022/07/23 12:08:22;;;;;;;2.40;1.50;;;18.70;1.00;;;;;;5094760;28;20169;-74
2022/07/23 12:10:48;;;;;;;2.67;1.60;;;18.50;1.00;;;;;;5094580;28;20418;-74
2022/07/23 12:13:17;;;;;;;1.63;1.50;;;18.30;1.00;;;;;;5093052;28;20177;-67
2022/07/23 12:15:53;;;;;;;7.07;1.80;;;18.20;1.00;;;;;;5094627;28;20785;-67
2022/07/23 12:18:21;;;;;;;3.70;1.97;;;18.20;1.00;;;;;;5094561;28;20509;-75
2022/07/23 12:20:56;;;;;;;4.90;1.60;;;18.40;1.00;;;;;;5094080;28;20403;-73
2022/07/23 12:23:26;;;;;;;4.50;1.50;;;19.70;1.00;;;;;;5093602;28;20408;-75
2022/07/23 12:25:52;;;;;;;2.73;1.30;;;21.20;1.00;;;;;;5094601;28;20435;-75
2022/07/23 12:28:19;;;;;;;2.80;1.87;;;22.60;1.00;;;;;;5094475;28;20404;-75
2022/07/23 12:30:50;;;;;;;3.00;1.67;;;22.80;1.00;;;;;;5076529;28;20414;-74
2022/07/23 12:33:29;;;;;;;4.90;1.57;;;22.50;1.00;;;;;;5093347;28;20828;-68
2022/07/23 12:36:04;;;;;;;3.53;1.40;;;22.00;1.00;;;;;;5094292;28;20506;-67
2022/07/23 12:38:39;;;;;;;1.53;1.30;;;21.40;1.00;;;;;;5093728;28;20802;-66
2022/07/23 12:41:05;;;;;;;4.70;1.47;;;20.50;1.00;;;;;;5094243;28;20419;-68
2022/07/23 12:43:38;;;;;;;2.70;1.67;;;19.80;1.00;;;;;;5074939;28;20477;-67
2022/07/23 12:46:11;;;;;;;1.77;1.40;;;19.30;1.00;;;;;;5094080;28;20402;-67
2022/07/23 12:48:39;;;;;;;3.20;1.47;;;19.00;1.00;;;;;;5094169;28;20395;-66
2022/07/23 12:51:15;;;;;;;2.80;1.37;;;18.80;1.00;;;;;;5094042;28;20420;-67
2022/07/23 12:53:46;;;;;;;6.17;1.50;;;18.60;1.00;;;;;;5092373;28;20502;-76
2022/07/23 12:56:19;;;;;;;1.77;1.20;;;18.30;1.00;;;;;;5093873;28;20408;-75
2022/07/23 12:58:54;;;;;;;2.63;1.40;;;18.30;1.00;;;;;;5093942;28;20486;-69
2022/07/23 13:01:20;;;;;;;1.53;1.43;;;18.30;1.00;;;;;;5093870;28;20414;-70
2022/07/23 13:03:58;;;;;;;2.13;1.37;;;18.30;1.00;;;;;;5092658;28;20773;-67
2022/07/23 13:06:24;;;;;;;1.90;1.30;;;18.40;1.00;;;;;;5093802;28;20176;-75
2022/07/23 13:08:50;;;;;;;2.73;1.40;;;18.40;1.00;;;;;;5093735;28;20435;-75
2022/07/23 13:11:16;;;;;;;2.03;0.90;;;18.60;1.00;;;;;;5093281;28;20423;-75
2022/07/23 13:13:42;;;;;;;2.27;1.27;;;18.70;1.00;;;;;;5092509;28;20178;-74
2022/07/23 13:16:08;;;;;;;1.40;1.30;;;18.80;1.00;;;;;;5093590;28;20427;-75
2022/07/23 13:18:37;;;;;;;2.90;1.43;;;19.10;1.00;;;;;;5093565;28;20427;-76
2022/07/23 13:21:03;;;;;;;1.63;1.37;;;19.30;1.00;;;;;;5093614;28;20402;-69
2022/07/23 13:23:29;;;;;;;2.33;1.60;;;19.50;1.00;;;;;;5092532;28;20434;-77
2022/07/23 13:25:57;;;;;;;1.90;1.37;;;19.50;1.00;;;;;;5093519;28;20430;-77
2022/07/23 13:28:28;;;;;;;3.03;1.20;;;19.40;1.00;;;;;;5075298;28;20454;-69
2022/07/23 13:31:00;;;;;;;1.53;1.13;;;19.50;1.00;;;;;;5092676;28;20418;-69
2022/07/23 13:33:36;;;;;;;1.63;1.33;;;19.30;1.00;;;;;;5092066;28;20415;-69
2022/07/23 13:36:03;;;;;;;1.60;1.23;;;19.20;1.00;;;;;;5093269;28;20919;-69